createdAt,value
2022-12-16T12:35:13.640Z,30.05
2022-12-16T12:38:05.226Z,26.00
2022-12-16T12:41:28.236Z,29.33
2022-12-16T12:44:48.562Z,28.02
2022-12-16T12:47:38.163Z,27.88
2022-12-16T12:50:31.596Z,30.80
2022-12-16T12:53:34.176Z,27.48
2022-12-16T12:56:31.909Z,29.73
2022-12-16T12:59:25.240Z,28.08
2022-12-16T13:02:13.289Z,29.25
2022-12-16T13:04:59.369Z,30.27
2022-12-16T13:07:45.671Z,29.67
2022-12-16T13:10:34.385Z,29.38
2022-12-16T13:13:50.658Z,31.23
2022-12-16T13:17:07.036Z,32.42
2022-12-16T13:20:02.669Z,33.83
2022-12-16T13:22:50.598Z,36.38
2022-12-16T13:25:54.367Z,36.08
2022-12-16T13:28:40.917Z,35.08
2022-12-16T13:31:27.705Z,32.65
2022-12-16T13:34:15.494Z,29.55
2022-12-16T13:37:03.018Z,26.13
2022-12-16T13:39:49.117Z,31.30
2022-12-16T13:43:06.176Z,32.42
2022-12-16T13:46:23.756Z,27.23
2022-12-16T13:49:09.286Z,35.30
2022-12-16T13:51:57.142Z,34.42
2022-12-16T13:55:00.923Z,31.67
2022-12-16T13:57:49.294Z,30.88
2022-12-16T14:00:43.446Z,35.22
2022-12-16T14:03:58.360Z,32.20
2022-12-16T14:06:46.212Z,34.50
2022-12-16T14:10:08.080Z,30.88
2022-12-16T14:13:06.283Z,29.75
2022-12-16T14:16:12.978Z,33.88
2022-12-16T14:19:20.130Z,28.95
2022-12-16T14:22:34.255Z,29.98
2022-12-16T14:25:40.281Z,34.63
2022-12-16T14:29:05.463Z,28.98
2022-12-16T14:31:55.093Z,28.75
2022-12-16T14:34:44.882Z,32.47
2022-12-16T14:37:52.233Z,29.33
2022-12-16T14:40:46.458Z,33.78
2022-12-16T14:43:46.823Z,33.45
2022-12-16T14:47:08.223Z,33.50
2022-12-16T14:49:53.594Z,32.35
2022-12-16T14:52:43.845Z,34.95
2022-12-16T14:55:45.283Z,35.72
2022-12-16T14:58:37.868Z,35.40
2022-12-16T15:01:30.608Z,33.22
2022-12-16T15:04:16.626Z,34.90
2022-12-16T15:07:05.434Z,41.55
2022-12-16T15:09:58.604Z,37.20
2022-12-16T15:12:48.023Z,43.90
2022-12-16T15:15:57.661Z,40.65
2022-12-16T15:19:04.874Z,43.85
2022-12-16T15:21:53.937Z,37.63
2022-12-16T15:24:43.915Z,47.85
2022-12-16T15:27:56.169Z,48.45
2022-12-16T15:30:52.330Z,43.58
2022-12-16T15:33:44.177Z,42.83
2022-12-16T15:36:54.808Z,45.40
2022-12-16T15:39:41.230Z,44.83
2022-12-16T15:42:59.207Z,54.47
2022-12-16T15:45:51.539Z,49.75
2022-12-16T15:48:45.214Z,59.78
2022-12-16T15:51:42.454Z,56.67
2022-12-16T15:54:41.147Z,54.78
2022-12-16T15:57:45.959Z,57.67
2022-12-16T16:00:48.847Z,64.05
2022-12-16T16:03:39.322Z,62.80
2022-12-16T16:06:38.071Z,52.97
2022-12-16T16:09:38.658Z,58.15
2022-12-16T16:12:24.141Z,55.83
2022-12-16T16:15:09.488Z,61.92
2022-12-16T16:17:54.865Z,67.68
2022-12-16T16:20:40.248Z,69.22
2022-12-16T16:23:26.690Z,57.97
2022-12-16T16:26:12.173Z,62.90
2022-12-16T16:28:57.614Z,57.47
2022-12-16T16:31:43.061Z,67.95
2022-12-16T16:34:28.671Z,68.47
2022-12-16T16:37:16.522Z,77.22
2022-12-16T16:40:03.147Z,75.78
2022-12-16T16:42:48.790Z,72.10
2022-12-16T16:45:34.638Z,87.47
2022-12-16T16:48:29.675Z,82.28
2022-12-16T16:51:16.885Z,85.30
2022-12-16T16:54:02.630Z,94.43
2022-12-16T16:56:51.540Z,79.00
2022-12-16T16:59:39.406Z,83.63
2022-12-16T17:02:42.279Z,97.22
2022-12-16T17:05:29.924Z,95.35
2022-12-16T17:08:15.406Z,86.57
2022-12-16T17:11:00.996Z,82.90
2022-12-16T17:13:46.648Z,96.25
2022-12-16T17:16:32.819Z,90.95
2022-12-16T17:19:18.563Z,86.07
2022-12-16T17:22:04.023Z,89.22
2022-12-16T17:24:53.787Z,79.43
2022-12-16T17:27:42.595Z,109.78
2022-12-16T17:30:46.635Z,80.80
2022-12-16T17:33:36.810Z,80.35
2022-12-16T17:36:26.050Z,81.47
2022-12-16T17:39:14.597Z,82.07
2022-12-16T17:42:00.449Z,81.30
2022-12-16T17:44:45.650Z,81.85
2022-12-16T17:47:31.187Z,111.35
2022-12-16T17:50:16.692Z,109.05
2022-12-16T17:53:02.210Z,90.05
2022-12-16T17:55:47.578Z,95.32
2022-12-16T17:58:32.986Z,94.70
2022-12-16T18:01:25.564Z,92.60
2022-12-16T18:04:11.027Z,116.80
2022-12-16T18:06:56.566Z,102.68
2022-12-16T18:09:41.799Z,90.70
2022-12-16T18:12:27.081Z,88.22
2022-12-16T18:15:12.514Z,95.53
2022-12-16T18:17:57.949Z,102.05
2022-12-16T18:20:43.491Z,99.60
2022-12-16T18:23:28.866Z,94.38
2022-12-16T18:26:20.540Z,85.68
2022-12-16T18:29:06.069Z,93.07
2022-12-16T18:31:51.455Z,82.43
2022-12-16T18:34:36.758Z,92.45
2022-12-16T18:37:22.212Z,104.85
2022-12-16T18:40:07.731Z,94.55
2022-12-16T18:42:53.758Z,93.55
2022-12-16T18:45:39.268Z,89.88
2022-12-16T18:48:24.715Z,88.70
2022-12-16T18:51:14.365Z,91.45
2022-12-16T18:54:00.298Z,95.35
2022-12-16T18:56:46.184Z,84.20
2022-12-16T18:59:31.591Z,93.40
2022-12-16T19:02:17.212Z,85.07
2022-12-16T19:05:02.548Z,116.40
2022-12-16T19:07:47.800Z,119.93
2022-12-16T19:10:33.444Z,112.97
2022-12-16T19:13:18.992Z,110.10
2022-12-16T19:16:15.277Z,128.23
2022-12-16T19:19:00.626Z,109.97
2022-12-16T19:21:52.135Z,111.28
2022-12-16T19:24:42.453Z,112.82
2022-12-16T19:27:28.080Z,103.57
2022-12-16T19:30:13.622Z,97.15
2022-12-16T19:32:59.190Z,93.30
2022-12-16T19:35:44.879Z,81.78
2022-12-16T19:38:33.091Z,93.30
2022-12-16T19:41:18.413Z,85.55
2022-12-16T19:44:06.384Z,87.07
2022-12-16T19:47:09.610Z,89.30
2022-12-16T19:53:00.648Z,84.00
2022-12-16T19:55:47.282Z,88.68
2022-12-16T19:58:38.320Z,86.57
2022-12-16T20:01:27.846Z,79.95
2022-12-16T20:04:13.737Z,83.32
2022-12-16T20:06:59.021Z,83.82
2022-12-16T20:09:44.453Z,92.13
2022-12-16T20:12:30.027Z,91.75
2022-12-16T20:15:15.914Z,96.85
2022-12-16T20:18:01.510Z,93.95
2022-12-16T20:20:46.961Z,98.03
2022-12-16T20:23:32.637Z,106.70
2022-12-16T20:26:20.168Z,122.63
2022-12-16T20:29:06.280Z,105.40
2022-12-16T20:31:51.923Z,103.50
2022-12-16T20:34:37.918Z,97.03
2022-12-16T20:37:23.379Z,90.53
2022-12-16T20:40:08.771Z,99.85
2022-12-16T20:42:56.364Z,115.60
2022-12-16T20:45:42.099Z,101.90
2022-12-16T20:48:34.548Z,98.90
2022-12-16T20:51:27.146Z,93.85
2022-12-16T20:54:13.140Z,91.40
2022-12-16T20:56:59.201Z,95.50
2022-12-16T20:59:44.678Z,91.72
2022-12-16T21:02:33.548Z,85.15
2022-12-16T21:05:19.206Z,84.40
2022-12-16T21:08:04.519Z,89.55
2022-12-16T21:10:50.141Z,92.50
2022-12-16T21:13:36.736Z,86.45
2022-12-16T21:16:24.693Z,93.30
2022-12-16T21:19:18.646Z,96.90
2022-12-16T21:22:04.275Z,99.65
2022-12-16T21:24:49.456Z,90.40
2022-12-16T21:27:34.828Z,89.68
2022-12-16T21:30:20.087Z,99.85
2022-12-16T21:33:05.610Z,114.47
2022-12-16T21:35:51.168Z,100.68
2022-12-16T21:38:37.228Z,92.40
2022-12-16T21:41:22.719Z,96.72
2022-12-16T21:44:09.763Z,92.97
2022-12-16T21:46:55.302Z,107.43
2022-12-16T21:49:42.168Z,102.60
2022-12-16T21:52:27.594Z,99.22
2022-12-16T21:55:13.069Z,93.97
2022-12-16T21:58:01.067Z,93.47
2022-12-16T22:00:46.622Z,92.25
2022-12-16T22:03:32.134Z,91.90
2022-12-16T22:06:18.176Z,89.88
2022-12-16T22:09:03.304Z,95.10
2022-12-16T22:11:48.873Z,91.10
2022-12-16T22:14:34.492Z,97.18
2022-12-16T22:17:20.060Z,95.03
2022-12-16T22:20:05.334Z,82.35
2022-12-16T22:22:50.664Z,87.15
2022-12-16T22:25:44.889Z,87.10
2022-12-16T22:28:30.445Z,84.88
2022-12-16T22:31:16.470Z,80.70
2022-12-16T22:34:02.525Z,84.32
2022-12-16T22:36:49.191Z,83.07
2022-12-16T22:39:36.123Z,81.75
2022-12-16T22:42:24.337Z,92.47
2022-12-16T22:45:09.595Z,84.38
2022-12-16T22:47:55.130Z,88.10
2022-12-16T22:50:41.278Z,92.35
2022-12-16T22:53:26.428Z,85.20
2022-12-16T22:56:12.557Z,77.65
2022-12-16T22:59:02.514Z,81.82
2022-12-16T23:01:48.059Z,79.68
2022-12-16T23:04:33.280Z,74.10
2022-12-16T23:07:18.574Z,80.10
2022-12-16T23:10:04.153Z,81.15
2022-12-16T23:12:49.520Z,83.50
2022-12-16T23:15:35.264Z,102.43
2022-12-16T23:18:20.771Z,97.85
2022-12-16T23:21:08.179Z,88.32
2022-12-16T23:23:56.754Z,87.63
2022-12-16T23:26:42.271Z,92.90
2022-12-16T23:29:27.636Z,92.25
2022-12-16T23:32:13.131Z,84.97
2022-12-16T23:34:58.613Z,80.70
2022-12-16T23:37:44.224Z,88.03
2022-12-16T23:40:30.248Z,84.22
2022-12-16T23:43:15.713Z,85.30
2022-12-16T23:46:02.540Z,83.95
2022-12-16T23:48:47.849Z,82.47
2022-12-16T23:51:33.238Z,81.95
2022-12-16T23:54:18.826Z,88.78
2022-12-16T23:57:04.304Z,92.22
2022-12-16T23:59:49.758Z,98.72
